sensor_id;sensor_type;location;lat;lon;timestamp;P1;durP1;ratioP1;P2;durP2;ratioP2
5696;SDS011;2873;50.966;7.210;2023-10-19T00:00:34;15.50;;;5.57;;
5696;SDS011;2873;50.966;7.210;2023-10-19T00:03:03;6.93;;;5.10;;
5696;SDS011;2873;50.966;7.210;2023-10-19T00:05:31;7.40;;;5.17;;
5696;SDS011;2873;50.966;7.210;2023-10-19T00:08:00;9.17;;;6.20;;
5696;SDS011;2873;50.966;7.210;2023-10-19T00:10:39;9.30;;;6.50;;
5696;SDS011;2873;50.966;7.210;2023-10-19T00:13:10;10.10;;;5.50;;
5696;SDS011;2873;50.966;7.210;2023-10-19T00:15:42;7.90;;;5.47;;
5696;SDS011;2873;50.966;7.210;2023-10-19T00:18:16;7.57;;;5.83;;
5696;SDS011;2873;50.966;7.210;2023-10-19T00:20:42;9.80;;;6.03;;
5696;SDS011;2873;50.966;7.210;2023-10-19T00:23:20;10.90;;;6.03;;
5696;SDS011;2873;50.966;7.210;2023-10-19T00:25:54;9.20;;;6.43;;
5696;SDS011;2873;50.966;7.210;2023-10-19T00:28:20;13.00;;;6.27;;
5696;SDS011;2873;50.966;7.210;2023-10-19T00:30:47;14.23;;;6.17;;
5696;SDS011;2873;50.966;7.210;2023-10-19T00:33:16;13.50;;;6.53;;
5696;SDS011;2873;50.966;7.210;2023-10-19T00:35:53;14.20;;;7.00;;
5696;SDS011;2873;50.966;7.210;2023-10-19T00:38:24;9.47;;;6.40;;
5696;SDS011;2873;50.966;7.210;2023-10-19T00:41:04;11.30;;;6.30;;
5696;SDS011;2873;50.966;7.210;2023-10-19T00:43:32;9.13;;;6.30;;
5696;SDS011;2873;50.966;7.210;2023-10-19T00:46:09;24.97;;;6.10;;
5696;SDS011;2873;50.966;7.210;2023-10-19T00:51:14;9.30;;;6.00;;
5696;SDS011;2873;50.966;7.210;2023-10-19T00:56:45;9.43;;;5.27;;
5696;SDS011;2873;50.966;7.210;2023-10-19T00:59:15;8.00;;;6.00;;
5696;SDS011;2873;50.966;7.210;2023-10-19T01:01:50;9.10;;;6.03;;
5696;SDS011;2873;50.966;7.210;2023-10-19T01:04:22;9.90;;;7.40;;
5696;SDS011;2873;50.966;7.210;2023-10-19T01:06:48;8.70;;;5.80;;
5696;SDS011;2873;50.966;7.210;2023-10-19T01:09:26;5.87;;;5.00;;
5696;SDS011;2873;50.966;7.210;2023-10-19T01:11:59;6.50;;;5.27;;
5696;SDS011;2873;50.966;7.210;2023-10-19T01:14:29;8.57;;;5.57;;
5696;SDS011;2873;50.966;7.210;2023-10-19T01:16:54;13.03;;;5.60;;
5696;SDS011;2873;50.966;7.210;2023-10-19T01:19:24;6.83;;;5.10;;
5696;SDS011;2873;50.966;7.210;2023-10-19T01:21:52;10.10;;;6.67;;
5696;SDS011;2873;50.966;7.210;2023-10-19T01:24:24;10.03;;;6.57;;
5696;SDS011;2873;50.966;7.210;2023-10-19T01:27:07;8.93;;;5.70;;
5696;SDS011;2873;50.966;7.210;2023-10-19T01:29:36;10.13;;;5.23;;
5696;SDS011;2873;50.966;7.210;2023-10-19T01:32:03;8.30;;;5.57;;
5696;SDS011;2873;50.966;7.210;2023-10-19T01:34:33;7.10;;;5.53;;
5696;SDS011;2873;50.966;7.210;2023-10-19T01:37:00;7.67;;;5.93;;
5696;SDS011;2873;50.966;7.210;2023-10-19T01:39:35;7.57;;;5.10;;
5696;SDS011;2873;50.966;7.210;2023-10-19T01:42:02;8.60;;;6.00;;
5696;SDS011;2873;50.966;7.210;2023-10-19T01:44:33;8.13;;;5.60;;
5696;SDS011;2873;50.966;7.210;2023-10-19T01:47:01;9.30;;;5.33;;
5696;SDS011;2873;50.966;7.210;2023-10-19T01:49:26;6.63;;;5.13;;
5696;SDS011;2873;50.966;7.210;2023-10-19T01:51:53;7.97;;;6.10;;
5696;SDS011;2873;50.966;7.210;2023-10-19T01:54:19;13.57;;;5.67;;
5696;SDS011;2873;50.966;7.210;2023-10-19T01:56:50;10.60;;;5.43;;
5696;SDS011;2873;50.966;7.210;2023-10-19T01:59:23;9.43;;;6.37;;
5696;SDS011;2873;50.966;7.210;2023-10-19T02:01:56;11.40;;;6.13;;
5696;SDS011;2873;50.966;7.210;2023-10-19T02:04:22;7.20;;;5.00;;
5696;SDS011;2873;50.966;7.210;2023-10-19T02:06:48;6.57;;;5.30;;
5696;SDS011;2873;50.966;7.210;2023-10-19T02:09:16;9.37;;;5.07;;
5696;SDS011;2873;50.966;7.210;2023-10-19T02:11:42;6.80;;;5.33;;
5696;SDS011;2873;50.966;7.210;2023-10-19T02:14:12;8.37;;;5.10;;
5696;SDS011;2873;50.966;7.210;2023-10-19T02:16:42;7.00;;;4.77;;
5696;SDS011;2873;50.966;7.210;2023-10-19T02:19:08;6.80;;;4.90;;
5696;SDS011;2873;50.966;7.210;2023-10-19T02:21:35;13.40;;;6.10;;
5696;SDS011;2873;50.966;7.210;2023-10-19T02:24:10;6.27;;;4.90;;
5696;SDS011;2873;50.966;7.210;2023-10-19T02:26:42;9.17;;;5.40;;
5696;SDS011;2873;50.966;7.210;2023-10-19T02:29:08;9.63;;;5.57;;
5696;SDS011;2873;50.966;7.210;2023-10-19T02:31:35;8.50;;;5.73;;
5696;SDS011;2873;50.966;7.210;2023-10-19T02:34:05;8.20;;;4.90;;
5696;SDS011;2873;50.966;7.210;2023-10-19T02:36:35;8.37;;;5.37;;
5696;SDS011;2873;50.966;7.210;2023-10-19T02:39:04;8.43;;;4.60;;
5696;SDS011;2873;50.966;7.210;2023-10-19T02:41:37;8.90;;;5.40;;
5696;SDS011;2873;50.966;7.210;2023-10-19T02:44:04;7.73;;;5.23;;
5696;SDS011;2873;50.966;7.210;2023-10-19T02:49:11;8.13;;;4.90;;
5696;SDS011;2873;50.966;7.210;2023-10-19T02:51:45;7.40;;;4.50;;
5696;SDS011;2873;50.966;7.210;2023-10-19T02:54:11;7.60;;;4.93;;
5696;SDS011;2873;50.966;7.210;2023-10-19T02:56:45;10.07;;;5.07;;
5696;SDS011;2873;50.966;7.210;2023-10-19T02:59:16;7.80;;;5.30;;
5696;SDS011;2873;50.966;7.210;2023-10-19T03:01:47;7.40;;;4.97;;
5696;SDS011;2873;50.966;7.210;2023-10-19T03:04:13;6.13;;;4.40;;
5696;SDS011;2873;50.966;7.210;2023-10-19T03:06:40;6.07;;;4.90;;
5696;SDS011;2873;50.966;7.210;2023-10-19T03:09:06;9.07;;;5.80;;
5696;SDS011;2873;50.966;7.210;2023-10-19T03:11:55;5.73;;;5.10;;
5696;SDS011;2873;50.966;7.210;2023-10-19T03:14:25;7.73;;;4.90;;
5696;SDS011;2873;50.966;7.210;2023-10-19T03:16:51;7.33;;;5.17;;
5696;SDS011;2873;50.966;7.210;2023-10-19T03:19:20;8.03;;;5.00;;
5696;SDS011;2873;50.966;7.210;2023-10-19T03:21:45;8.00;;;4.90;;
5696;SDS011;2873;50.966;7.210;2023-10-19T03:24:14;6.60;;;5.03;;
5696;SDS011;2873;50.966;7.210;2023-10-19T03:27:00;8.30;;;5.60;;
5696;SDS011;2873;50.966;7.210;2023-10-19T03:29:26;7.87;;;5.57;;
5696;SDS011;2873;50.966;7.210;2023-10-19T03:31:56;13.67;;;6.00;;
5696;SDS011;2873;50.966;7.210;2023-10-19T03:34:24;10.43;;;5.70;;
5696;SDS011;2873;50.966;7.210;2023-10-19T03:36:49;5.83;;;5.23;;
5696;SDS011;2873;50.966;7.210;2023-10-19T03:39:15;7.50;;;5.30;;
5696;SDS011;2873;50.966;7.210;2023-10-19T03:41:43;9.30;;;5.80;;
5696;SDS011;2873;50.966;7.210;2023-10-19T03:44:12;8.53;;;5.10;;
5696;SDS011;2873;50.966;7.210;2023-10-19T03:46:49;6.37;;;5.00;;
5696;SDS011;2873;50.966;7.210;2023-10-19T03:49:18;8.80;;;5.10;;
5696;SDS011;2873;50.966;7.210;2023-10-19T03:51:45;7.63;;;4.60;;
5696;SDS011;2873;50.966;7.210;2023-10-19T03:54:24;8.83;;;4.70;;
5696;SDS011;2873;50.966;7.210;2023-10-19T03:56:50;10.83;;;5.73;;
5696;SDS011;2873;50.966;7.210;2023-10-19T03:59:17;10.70;;;4.77;;
5696;SDS011;2873;50.966;7.210;2023-10-19T04:01:43;6.90;;;5.40;;
5696;SDS011;2873;50.966;7.210;2023-10-19T04:04:09;7.80;;;5.00;;
5696;SDS011;2873;50.966;7.210;2023-10-19T04:06:35;9.60;;;5.77;;
5696;SDS011;2873;50.966;7.210;2023-10-19T04:09:05;8.80;;;5.93;;
5696;SDS011;2873;50.966;7.210;2023-10-19T04:11:31;11.27;;;6.57;;
5696;SDS011;2873;50.966;7.210;2023-10-19T04:14:13;7.60;;;5.20;;
5696;SDS011;2873;50.966;7.210;2023-10-19T04:16:40;9.83;;;5.43;;
5696;SDS011;2873;50.966;7.210;2023-10-19T04:19:08;5.83;;;4.93;;
5696;SDS011;2873;50.966;7.210;2023-10-19T04:21:35;12.77;;;5.90;;
5696;SDS011;2873;50.966;7.210;2023-10-19T04:24:04;6.97;;;5.10;;
5696;SDS011;2873;50.966;7.210;2023-10-19T04:26:32;6.50;;;4.63;;
5696;SDS011;2873;50.966;7.210;2023-10-19T04:29:02;6.40;;;4.80;;
5696;SDS011;2873;50.966;7.210;2023-10-19T04:31:35;12.53;;;6.30;;
5696;SDS011;2873;50.966;7.210;2023-10-19T04:34:27;5.60;;;4.57;;
5696;SDS011;2873;50.966;7.210;2023-10-19T04:36:54;7.80;;;5.43;;
5696;SDS011;2873;50.966;7.210;2023-10-19T04:39:20;13.63;;;5.60;;
5696;SDS011;2873;50.966;7.210;2023-10-19T04:41:45;13.40;;;5.03;;
5696;SDS011;2873;50.966;7.210;2023-10-19T04:44:13;5.47;;;4.63;;
5696;SDS011;2873;50.966;7.210;2023-10-19T04:46:40;6.47;;;4.90;;
5696;SDS011;2873;50.966;7.210;2023-10-19T04:49:06;5.50;;;4.30;;
5696;SDS011;2873;50.966;7.210;2023-10-19T04:51:32;6.53;;;5.77;;
5696;SDS011;2873;50.966;7.210;2023-10-19T04:53:59;6.97;;;5.10;;
5696;SDS011;2873;50.966;7.210;2023-10-19T04:56:25;8.30;;;4.17;;
5696;SDS011;2873;50.966;7.210;2023-10-19T04:58:50;5.70;;;4.60;;
5696;SDS011;2873;50.966;7.210;2023-10-19T05:01:16;5.93;;;4.53;;
5696;SDS011;2873;50.966;7.210;2023-10-19T05:03:41;5.40;;;4.17;;
5696;SDS011;2873;50.966;7.210;2023-10-19T05:06:07;7.17;;;4.80;;
5696;SDS011;2873;50.966;7.210;2023-10-19T05:08:34;7.97;;;5.37;;
5696;SDS011;2873;50.966;7.210;2023-10-19T05:11:01;10.20;;;6.13;;
5696;SDS011;2873;50.966;7.210;2023-10-19T05:13:27;6.83;;;4.20;;
5696;SDS011;2873;50.966;7.210;2023-10-19T05:15:55;7.17;;;4.90;;
5696;SDS011;2873;50.966;7.210;2023-10-19T05:18:21;5.80;;;4.27;;
5696;SDS011;2873;50.966;7.210;2023-10-19T05:20:47;4.40;;;3.77;;
5696;SDS011;2873;50.966;7.210;2023-10-19T05:23:14;4.67;;;3.53;;
5696;SDS011;2873;50.966;7.210;2023-10-19T05:25:39;5.57;;;4.00;;
5696;SDS011;2873;50.966;7.210;2023-10-19T05:28:05;4.90;;;3.90;;
5696;SDS011;2873;50.966;7.210;2023-10-19T05:30:32;5.67;;;4.07;;
5696;SDS011;2873;50.966;7.210;2023-10-19T05:32:58;4.90;;;3.50;;
5696;SDS011;2873;50.966;7.210;2023-10-19T05:35:26;10.47;;;4.10;;
5696;SDS011;2873;50.966;7.210;2023-10-19T05:37:53;10.20;;;4.07;;
5696;SDS011;2873;50.966;7.210;2023-10-19T05:40:21;6.93;;;3.50;;
5696;SDS011;2873;50.966;7.210;2023-10-19T05:42:55;3.33;;;3.03;;
5696;SDS011;2873;50.966;7.210;2023-10-19T05:45:21;4.27;;;3.57;;
5696;SDS011;2873;50.966;7.210;2023-10-19T05:47:47;5.57;;;3.10;;
5696;SDS011;2873;50.966;7.210;2023-10-19T05:50:13;9.40;;;3.90;;
5696;SDS011;2873;50.966;7.210;2023-10-19T05:52:42;3.13;;;2.80;;
5696;SDS011;2873;50.966;7.210;2023-10-19T05:55:09;12.73;;;2.97;;
5696;SDS011;2873;50.966;7.210;2023-10-19T05:57:38;3.23;;;2.53;;
5696;SDS011;2873;50.966;7.210;2023-10-19T06:00:11;4.93;;;2.80;;
5696;SDS011;2873;50.966;7.210;2023-10-19T06:02:47;4.50;;;3.17;;
5696;SDS011;2873;50.966;7.210;2023-10-19T06:05:17;4.37;;;3.97;;
5696;SDS011;2873;50.966;7.210;2023-10-19T06:07:44;3.57;;;2.97;;
5696;SDS011;2873;50.966;7.210;2023-10-19T06:10:12;6.33;;;3.20;;
5696;SDS011;2873;50.966;7.210;2023-10-19T06:12:41;4.03;;;2.90;;
5696;SDS011;2873;50.966;7.210;2023-10-19T06:15:07;11.87;;;5.07;;
5696;SDS011;2873;50.966;7.210;2023-10-19T06:17:35;3.87;;;3.23;;
5696;SDS011;2873;50.966;7.210;2023-10-19T06:20:04;3.90;;;3.20;;
5696;SDS011;2873;50.966;7.210;2023-10-19T06:22:33;7.70;;;3.67;;
5696;SDS011;2873;50.966;7.210;2023-10-19T06:25:00;5.20;;;3.40;;
5696;SDS011;2873;50.966;7.210;2023-10-19T06:27:25;6.17;;;3.63;;
5696;SDS011;2873;50.966;7.210;2023-10-19T06:29:51;6.27;;;4.90;;
5696;SDS011;2873;50.966;7.210;2023-10-19T06:32:18;6.93;;;4.13;;
5696;SDS011;2873;50.966;7.210;2023-10-19T06:34:43;7.83;;;4.83;;
5696;SDS011;2873;50.966;7.210;2023-10-19T06:37:09;7.20;;;4.03;;
5696;SDS011;2873;50.966;7.210;2023-10-19T06:39:36;5.27;;;4.47;;
5696;SDS011;2873;50.966;7.210;2023-10-19T06:42:05;8.23;;;4.47;;
5696;SDS011;2873;50.966;7.210;2023-10-19T06:44:35;7.03;;;4.20;;
5696;SDS011;2873;50.966;7.210;2023-10-19T06:47:01;8.83;;;5.07;;
5696;SDS011;2873;50.966;7.210;2023-10-19T06:49:26;6.00;;;4.73;;
5696;SDS011;2873;50.966;7.210;2023-10-19T06:51:54;6.70;;;4.23;;
5696;SDS011;2873;50.966;7.210;2023-10-19T06:54:21;8.77;;;4.83;;
5696;SDS011;2873;50.966;7.210;2023-10-19T06:56:47;8.10;;;4.93;;
5696;SDS011;2873;50.966;7.210;2023-10-19T06:59:12;5.10;;;4.27;;
5696;SDS011;2873;50.966;7.210;2023-10-19T07:01:38;8.27;;;4.33;;
5696;SDS011;2873;50.966;7.210;2023-10-19T07:04:03;9.90;;;4.80;;
5696;SDS011;2873;50.966;7.210;2023-10-19T07:06:29;9.17;;;4.53;;
5696;SDS011;2873;50.966;7.210;2023-10-19T07:08:55;11.90;;;5.70;;
5696;SDS011;2873;50.966;7.210;2023-10-19T07:11:21;8.23;;;4.50;;
5696;SDS011;2873;50.966;7.210;2023-10-19T07:13:49;7.70;;;4.30;;
5696;SDS011;2873;50.966;7.210;2023-10-19T07:16:18;6.53;;;3.80;;
5696;SDS011;2873;50.966;7.210;2023-10-19T07:18:45;6.10;;;4.17;;
5696;SDS011;2873;50.966;7.210;2023-10-19T07:21:11;4.40;;;4.07;;
5696;SDS011;2873;50.966;7.210;2023-10-19T07:23:37;5.67;;;4.50;;
5696;SDS011;2873;50.966;7.210;2023-10-19T07:26:05;11.90;;;4.87;;
5696;SDS011;2873;50.966;7.210;2023-10-19T07:28:31;3.40;;;3.10;;
5696;SDS011;2873;50.966;7.210;2023-10-19T07:30:57;11.70;;;3.73;;
5696;SDS011;2873;50.966;7.210;2023-10-19T07:33:24;4.40;;;3.00;;
5696;SDS011;2873;50.966;7.210;2023-10-19T07:35:51;3.90;;;3.50;;
5696;SDS011;2873;50.966;7.210;2023-10-19T07:38:23;4.37;;;3.40;;
5696;SDS011;2873;50.966;7.210;2023-10-19T07:40:49;5.07;;;3.30;;
5696;SDS011;2873;50.966;7.210;2023-10-19T07:43:17;10.67;;;3.37;;
5696;SDS011;2873;50.966;7.210;2023-10-19T07:45:45;4.20;;;3.10;;
5696;SDS011;2873;50.966;7.210;2023-10-19T07:48:12;8.60;;;3.43;;
5696;SDS011;2873;50.966;7.210;2023-10-19T07:50:39;5.23;;;3.17;;
5696;SDS011;2873;50.966;7.210;2023-10-19T07:53:08;5.20;;;2.90;;
5696;SDS011;2873;50.966;7.210;2023-10-19T07:55:34;3.90;;;3.33;;
5696;SDS011;2873;50.966;7.210;2023-10-19T07:58:00;4.90;;;2.50;;
5696;SDS011;2873;50.966;7.210;2023-10-19T08:00:28;7.10;;;2.97;;
5696;SDS011;2873;50.966;7.210;2023-10-19T08:02:59;3.87;;;2.23;;
5696;SDS011;2873;50.966;7.210;2023-10-19T08:05:25;5.33;;;2.30;;
5696;SDS011;2873;50.966;7.210;2023-10-19T08:07:51;2.40;;;2.13;;
5696;SDS011;2873;50.966;7.210;2023-10-19T08:10:18;3.70;;;2.53;;
5696;SDS011;2873;50.966;7.210;2023-10-19T08:12:45;3.00;;;2.63;;
5696;SDS011;2873;50.966;7.210;2023-10-19T08:15:15;2.20;;;2.10;;
5696;SDS011;2873;50.966;7.210;2023-10-19T08:17:43;4.80;;;2.77;;
5696;SDS011;2873;50.966;7.210;2023-10-19T08:20:10;2.60;;;2.33;;
5696;SDS011;2873;50.966;7.210;2023-10-19T08:22:55;2.37;;;2.23;;
5696;SDS011;2873;50.966;7.210;2023-10-19T08:25:24;4.03;;;2.57;;
5696;SDS011;2873;50.966;7.210;2023-10-19T08:27:53;2.70;;;2.50;;
5696;SDS011;2873;50.966;7.210;2023-10-19T08:30:22;3.17;;;2.80;;
5696;SDS011;2873;50.966;7.210;2023-10-19T08:32:48;3.80;;;2.77;;
5696;SDS011;2873;50.966;7.210;2023-10-19T08:35:14;6.93;;;3.23;;
5696;SDS011;2873;50.966;7.210;2023-10-19T08:37:43;6.43;;;3.10;;
5696;SDS011;2873;50.966;7.210;2023-10-19T08:40:11;7.03;;;3.00;;
5696;SDS011;2873;50.966;7.210;2023-10-19T08:42:41;3.20;;;2.87;;
5696;SDS011;2873;50.966;7.210;2023-10-19T08:45:07;8.10;;;2.70;;
5696;SDS011;2873;50.966;7.210;2023-10-19T08:50:21;4.50;;;2.60;;
5696;SDS011;2873;50.966;7.210;2023-10-19T08:52:55;3.10;;;2.80;;
5696;SDS011;2873;50.966;7.210;2023-10-19T08:55:22;6.00;;;2.80;;
5696;SDS011;2873;50.966;7.210;2023-10-19T08:57:48;3.80;;;3.30;;
5696;SDS011;2873;50.966;7.210;2023-10-19T09:00:15;4.03;;;2.93;;
5696;SDS011;2873;50.966;7.210;2023-10-19T09:02:45;6.57;;;3.07;;
5696;SDS011;2873;50.966;7.210;2023-10-19T09:05:11;7.63;;;4.13;;
5696;SDS011;2873;50.966;7.210;2023-10-19T09:07:51;6.53;;;2.93;;
5696;SDS011;2873;50.966;7.210;2023-10-19T09:10:23;4.43;;;2.90;;
5696;SDS011;2873;50.966;7.210;2023-10-19T09:15:27;3.70;;;2.50;;
5696;SDS011;2873;50.966;7.210;2023-10-19T09:17:54;2.50;;;2.30;;
5696;SDS011;2873;50.966;7.210;2023-10-19T09:20:20;3.27;;;1.80;;
5696;SDS011;2873;50.966;7.210;2023-10-19T09:22:52;2.37;;;1.43;;
5696;SDS011;2873;50.966;7.210;2023-10-19T09:25:19;2.43;;;1.70;;
5696;SDS011;2873;50.966;7.210;2023-10-19T09:27:46;2.93;;;1.73;;
5696;SDS011;2873;50.966;7.210;2023-10-19T09:30:12;3.00;;;1.67;;
5696;SDS011;2873;50.966;7.210;2023-10-19T09:32:43;5.70;;;1.80;;
5696;SDS011;2873;50.966;7.210;2023-10-19T09:35:11;6.07;;;1.50;;
5696;SDS011;2873;50.966;7.210;2023-10-19T09:37:40;2.80;;;1.50;;
5696;SDS011;2873;50.966;7.210;2023-10-19T09:40:08;4.10;;;1.40;;
5696;SDS011;2873;50.966;7.210;2023-10-19T09:42:38;10.70;;;2.67;;
5696;SDS011;2873;50.966;7.210;2023-10-19T09:45:11;4.30;;;1.70;;
5696;SDS011;2873;50.966;7.210;2023-10-19T09:47:41;12.80;;;1.97;;
5696;SDS011;2873;50.966;7.210;2023-10-19T09:50:11;2.40;;;1.40;;
5696;SDS011;2873;50.966;7.210;2023-10-19T09:52:37;3.40;;;1.53;;
5696;SDS011;2873;50.966;7.210;2023-10-19T09:55:12;1.57;;;1.37;;
5696;SDS011;2873;50.966;7.210;2023-10-19T09:58:06;1.73;;;1.20;;
5696;SDS011;2873;50.966;7.210;2023-10-19T10:00:49;7.47;;;1.47;;
5696;SDS011;2873;50.966;7.210;2023-10-19T10:06:13;3.37;;;1.47;;
5696;SDS011;2873;50.966;7.210;2023-10-19T10:09:02;3.57;;;1.30;;
5696;SDS011;2873;50.966;7.210;2023-10-19T10:11:28;3.30;;;1.10;;
5696;SDS011;2873;50.966;7.210;2023-10-19T10:13:56;5.27;;;1.50;;
5696;SDS011;2873;50.966;7.210;2023-10-19T10:16:24;4.67;;;1.60;;
5696;SDS011;2873;50.966;7.210;2023-10-19T10:18:57;2.07;;;1.10;;
5696;SDS011;2873;50.966;7.210;2023-10-19T10:21:29;5.47;;;1.43;;
5696;SDS011;2873;50.966;7.210;2023-10-19T10:23:59;4.83;;;1.40;;
5696;SDS011;2873;50.966;7.210;2023-10-19T10:26:26;1.80;;;1.50;;
5696;SDS011;2873;50.966;7.210;2023-10-19T10:29:09;2.80;;;1.37;;
5696;SDS011;2873;50.966;7.210;2023-10-19T10:31:44;8.23;;;1.73;;
5696;SDS011;2873;50.966;7.210;2023-10-19T10:34:11;2.53;;;1.53;;
5696;SDS011;2873;50.966;7.210;2023-10-19T10:37:01;5.37;;;1.30;;
5696;SDS011;2873;50.966;7.210;2023-10-19T10:39:32;5.67;;;1.47;;
5696;SDS011;2873;50.966;7.210;2023-10-19T10:42:01;3.27;;;1.47;;
5696;SDS011;2873;50.966;7.210;2023-10-19T10:44:39;1.00;;;1.00;;
5696;SDS011;2873;50.966;7.210;2023-10-19T10:47:09;4.03;;;1.13;;
5696;SDS011;2873;50.966;7.210;2023-10-19T10:52:32;2.40;;;1.50;;
5696;SDS011;2873;50.966;7.210;2023-10-19T10:54:59;2.70;;;1.30;;
5696;SDS011;2873;50.966;7.210;2023-10-19T10:57:38;3.80;;;1.47;;
5696;SDS011;2873;50.966;7.210;2023-10-19T11:00:06;1.73;;;1.07;;
5696;SDS011;2873;50.966;7.210;2023-10-19T11:02:35;7.67;;;1.70;;
5696;SDS011;2873;50.966;7.210;2023-10-19T11:05:01;4.20;;;1.50;;
5696;SDS011;2873;50.966;7.210;2023-10-19T11:07:28;2.50;;;1.13;;
5696;SDS011;2873;50.966;7.210;2023-10-19T11:09:54;9.67;;;1.77;;
5696;SDS011;2873;50.966;7.210;2023-10-19T11:12:20;2.53;;;1.50;;
5696;SDS011;2873;50.966;7.210;2023-10-19T11:14:52;5.53;;;2.00;;
5696;SDS011;2873;50.966;7.210;2023-10-19T11:17:23;4.60;;;2.03;;
5696;SDS011;2873;50.966;7.210;2023-10-19T11:19:56;5.00;;;1.53;;
5696;SDS011;2873;50.966;7.210;2023-10-19T11:22:22;7.23;;;1.40;;
5696;SDS011;2873;50.966;7.210;2023-10-19T11:24:54;5.70;;;1.73;;
5696;SDS011;2873;50.966;7.210;2023-10-19T11:27:27;4.17;;;0.93;;
5696;SDS011;2873;50.966;7.210;2023-10-19T11:29:54;6.13;;;2.17;;
5696;SDS011;2873;50.966;7.210;2023-10-19T11:32:21;1.97;;;1.50;;
5696;SDS011;2873;50.966;7.210;2023-10-19T11:34:46;14.87;;;3.40;;
5696;SDS011;2873;50.966;7.210;2023-10-19T11:37:13;2.37;;;1.23;;
5696;SDS011;2873;50.966;7.210;2023-10-19T11:39:39;1.97;;;1.13;;
5696;SDS011;2873;50.966;7.210;2023-10-19T11:42:04;6.97;;;1.23;;
5696;SDS011;2873;50.966;7.210;2023-10-19T11:44:30;9.23;;;1.90;;
5696;SDS011;2873;50.966;7.210;2023-10-19T11:46:55;6.47;;;1.30;;
5696;SDS011;2873;50.966;7.210;2023-10-19T11:49:21;12.93;;;2.13;;
5696;SDS011;2873;50.966;7.210;2023-10-19T11:51:48;5.93;;;1.63;;
5696;SDS011;2873;50.966;7.210;2023-10-19T11:54:13;1.90;;;1.40;;
5696;SDS011;2873;50.966;7.210;2023-10-19T11:56:39;3.70;;;1.33;;
5696;SDS011;2873;50.966;7.210;2023-10-19T11:59:04;5.10;;;1.63;;
5696;SDS011;2873;50.966;7.210;2023-10-19T12:01:30;9.20;;;2.77;;
5696;SDS011;2873;50.966;7.210;2023-10-19T12:03:55;2.90;;;1.57;;
5696;SDS011;2873;50.966;7.210;2023-10-19T12:06:21;4.03;;;1.73;;
5696;SDS011;2873;50.966;7.210;2023-10-19T12:08:48;4.70;;;1.57;;
5696;SDS011;2873;50.966;7.210;2023-10-19T12:11:14;12.57;;;1.40;;
5696;SDS011;2873;50.966;7.210;2023-10-19T12:13:40;2.73;;;1.40;;
5696;SDS011;2873;50.966;7.210;2023-10-19T12:16:08;1.67;;;1.20;;
5696;SDS011;2873;50.966;7.210;2023-10-19T12:18:37;2.47;;;1.50;;
5696;SDS011;2873;50.966;7.210;2023-10-19T12:21:03;7.70;;;1.90;;
5696;SDS011;2873;50.966;7.210;2023-10-19T12:23:32;2.10;;;1.50;;
5696;SDS011;2873;50.966;7.210;2023-10-19T12:25:58;4.27;;;1.67;;
5696;SDS011;2873;50.966;7.210;2023-10-19T12:28:28;4.10;;;2.37;;
5696;SDS011;2873;50.966;7.210;2023-10-19T12:30:53;3.67;;;1.63;;
5696;SDS011;2873;50.966;7.210;2023-10-19T12:33:21;3.33;;;1.63;;
5696;SDS011;2873;50.966;7.210;2023-10-19T12:35:46;2.97;;;1.83;;
5696;SDS011;2873;50.966;7.210;2023-10-19T12:38:21;5.73;;;1.37;;
5696;SDS011;2873;50.966;7.210;2023-10-19T12:40:48;8.23;;;1.90;;
5696;SDS011;2873;50.966;7.210;2023-10-19T12:43:15;8.53;;;1.90;;
5696;SDS011;2873;50.966;7.210;2023-10-19T12:45:43;5.70;;;2.07;;
5696;SDS011;2873;50.966;7.210;2023-10-19T12:48:13;7.27;;;1.70;;
5696;SDS011;2873;50.966;7.210;2023-10-19T12:50:38;3.37;;;1.50;;
5696;SDS011;2873;50.966;7.210;2023-10-19T12:53:05;4.33;;;1.50;;
5696;SDS011;2873;50.966;7.210;2023-10-19T12:55:31;1.57;;;1.43;;
5696;SDS011;2873;50.966;7.210;2023-10-19T12:57:57;7.10;;;1.87;;
5696;SDS011;2873;50.966;7.210;2023-10-19T13:00:25;5.80;;;2.23;;
5696;SDS011;2873;50.966;7.210;2023-10-19T13:02:51;4.87;;;1.63;;
5696;SDS011;2873;50.966;7.210;2023-10-19T13:05:31;4.07;;;2.27;;
5696;SDS011;2873;50.966;7.210;2023-10-19T13:07:57;4.27;;;2.00;;
5696;SDS011;2873;50.966;7.210;2023-10-19T13:10:27;1.70;;;1.60;;
5696;SDS011;2873;50.966;7.210;2023-10-19T13:12:54;3.27;;;2.00;;
5696;SDS011;2873;50.966;7.210;2023-10-19T13:15:20;6.57;;;1.73;;
5696;SDS011;2873;50.966;7.210;2023-10-19T13:17:47;10.60;;;2.20;;
5696;SDS011;2873;50.966;7.210;2023-10-19T13:20:13;4.07;;;2.23;;
5696;SDS011;2873;50.966;7.210;2023-10-19T13:22:42;5.03;;;1.67;;
5696;SDS011;2873;50.966;7.210;2023-10-19T13:25:09;6.83;;;3.00;;
5696;SDS011;2873;50.966;7.210;2023-10-19T13:27:38;9.17;;;2.00;;
5696;SDS011;2873;50.966;7.210;2023-10-19T13:30:06;3.90;;;1.40;;
5696;SDS011;2873;50.966;7.210;2023-10-19T13:32:35;2.10;;;1.90;;
5696;SDS011;2873;50.966;7.210;2023-10-19T13:35:01;3.33;;;1.63;;
5696;SDS011;2873;50.966;7.210;2023-10-19T13:37:27;4.97;;;2.00;;
5696;SDS011;2873;50.966;7.210;2023-10-19T13:39:53;6.87;;;1.70;;
5696;SDS011;2873;50.966;7.210;2023-10-19T13:42:19;3.50;;;1.83;;
5696;SDS011;2873;50.966;7.210;2023-10-19T13:44:46;4.20;;;2.07;;
5696;SDS011;2873;50.966;7.210;2023-10-19T13:47:12;3.33;;;1.50;;
5696;SDS011;2873;50.966;7.210;2023-10-19T13:49:38;5.77;;;2.00;;
5696;SDS011;2873;50.966;7.210;2023-10-19T13:52:04;2.17;;;1.50;;
5696;SDS011;2873;50.966;7.210;2023-10-19T13:54:30;2.17;;;1.70;;
5696;SDS011;2873;50.966;7.210;2023-10-19T13:56:55;4.27;;;1.77;;
5696;SDS011;2873;50.966;7.210;2023-10-19T13:59:21;3.07;;;1.60;;
5696;SDS011;2873;50.966;7.210;2023-10-19T14:01:48;5.60;;;1.83;;
5696;SDS011;2873;50.966;7.210;2023-10-19T14:04:15;6.87;;;1.70;;
5696;SDS011;2873;50.966;7.210;2023-10-19T14:06:41;5.10;;;1.73;;
5696;SDS011;2873;50.966;7.210;2023-10-19T14:09:08;4.97;;;2.07;;
5696;SDS011;2873;50.966;7.210;2023-10-19T14:11:37;11.97;;;2.30;;
5696;SDS011;2873;50.966;7.210;2023-10-19T14:14:03;7.07;;;1.73;;
5696;SDS011;2873;50.966;7.210;2023-10-19T14:16:29;7.60;;;2.23;;
5696;SDS011;2873;50.966;7.210;2023-10-19T14:18:55;2.53;;;1.80;;
5696;SDS011;2873;50.966;7.210;2023-10-19T14:21:21;2.70;;;2.50;;
5696;SDS011;2873;50.966;7.210;2023-10-19T14:23:51;4.57;;;2.33;;
5696;SDS011;2873;50.966;7.210;2023-10-19T14:26:18;11.70;;;2.27;;
5696;SDS011;2873;50.966;7.210;2023-10-19T14:28:44;7.07;;;1.97;;
5696;SDS011;2873;50.966;7.210;2023-10-19T14:31:09;10.00;;;2.90;;
5696;SDS011;2873;50.966;7.210;2023-10-19T14:33:36;5.70;;;2.23;;
5696;SDS011;2873;50.966;7.210;2023-10-19T14:36:06;4.47;;;2.03;;
5696;SDS011;2873;50.966;7.210;2023-10-19T14:38:32;9.60;;;2.87;;
5696;SDS011;2873;50.966;7.210;2023-10-19T14:40:58;10.50;;;2.10;;
5696;SDS011;2873;50.966;7.210;2023-10-19T14:43:24;3.00;;;2.30;;
5696;SDS011;2873;50.966;7.210;2023-10-19T14:45:54;12.60;;;2.73;;
5696;SDS011;2873;50.966;7.210;2023-10-19T14:48:22;6.73;;;2.80;;
5696;SDS011;2873;50.966;7.210;2023-10-19T14:50:48;9.03;;;2.60;;
5696;SDS011;2873;50.966;7.210;2023-10-19T14:53:16;4.57;;;2.20;;
5696;SDS011;2873;50.966;7.210;2023-10-19T14:55:43;6.97;;;2.43;;
5696;SDS011;2873;50.966;7.210;2023-10-19T14:58:10;5.27;;;2.40;;
5696;SDS011;2873;50.966;7.210;2023-10-19T15:00:36;17.40;;;3.03;;
5696;SDS011;2873;50.966;7.210;2023-10-19T15:03:07;9.27;;;3.17;;
5696;SDS011;2873;50.966;7.210;2023-10-19T15:05:33;6.17;;;2.67;;
5696;SDS011;2873;50.966;7.210;2023-10-19T15:08:05;3.10;;;2.10;;
5696;SDS011;2873;50.966;7.210;2023-10-19T15:10:31;4.93;;;2.60;;
5696;SDS011;2873;50.966;7.210;2023-10-19T15:12:57;7.20;;;3.70;;
5696;SDS011;2873;50.966;7.210;2023-10-19T15:15:24;5.17;;;3.07;;
5696;SDS011;2873;50.966;7.210;2023-10-19T15:17:50;5.83;;;4.00;;
5696;SDS011;2873;50.966;7.210;2023-10-19T15:20:18;7.00;;;3.17;;
5696;SDS011;2873;50.966;7.210;2023-10-19T15:22:46;6.67;;;4.20;;
5696;SDS011;2873;50.966;7.210;2023-10-19T15:25:14;8.07;;;4.30;;
5696;SDS011;2873;50.966;7.210;2023-10-19T15:27:44;6.63;;;4.23;;
5696;SDS011;2873;50.966;7.210;2023-10-19T15:30:11;4.63;;;3.27;;
5696;SDS011;2873;50.966;7.210;2023-10-19T15:32:40;8.63;;;3.60;;
5696;SDS011;2873;50.966;7.210;2023-10-19T15:35:07;9.13;;;3.33;;
5696;SDS011;2873;50.966;7.210;2023-10-19T15:37:34;8.20;;;3.27;;
5696;SDS011;2873;50.966;7.210;2023-10-19T15:40:01;4.90;;;2.70;;